Terminal Aerodrome Forecast
Issued by NWS Quad Cities IA IL

Home | Current Version | Previous Version | Text Only | Print | Product List | Glossary On
Versions: 1 2 3 4 5 6 7 8 9 10 11 12 13 14 15 16 17 18 19 20 21
002
FTUS43 KDVN 271136
TAFMLI
TAF
KMLI 271136Z 2712/2812 27008KT P6SM SKC
     FM271600 29016G26KT P6SM SKC
     FM272300 31011KT P6SM SCT060
     FM280400 32008KT P6SM VCSH SCT025 BKN035=

USA.gov is the U.S. government's official web portal to all federal, state and local government web resources and services.